Time,TemperatureF,DewpointF,PressureIn,WindDirection,WindDirectionDegrees,WindSpeedMPH,WindSpeedGustMPH,Humidity,HourlyPrecipIn,Conditions,Clouds,dailyrainin,SoftwareType,DateUTC
2013-05-21 00:00:00,61.8,60.4,29.13,North,360,0.0,0.0,95,0.00,,,0.01,Wunderground v.1.15,2013-05-21 04:00:00,
2013-05-21 00:05:00,61.6,60.2,29.14,North,360,0.0,0.0,95,0.00,,,0.01,Wunderground v.1.15,2013-05-21 04:05:00,
2013-05-21 00:10:00,61.4,60.0,29.13,North,360,0.0,0.0,95,0.00,,,0.00,Wunderground v.1.15,2013-05-21 04:10:00,
2013-05-21 00:15:00,61.3,59.9,29.14,North,360,0.0,0.0,95,0.00,,,0.00,Wunderground v.1.15,2013-05-21 04:15:00,
2013-05-21 00:20:00,61.2,59.8,29.14,North,360,0.0,0.0,95,0.00,,,0.00,Wunderground v.1.15,2013-05-21 04:20:00,
2013-05-21 00:25:00,61.2,59.8,29.14,North,360,0.0,0.0,95,0.00,,,0.00,Wunderground v.1.15,2013-05-21 04:25:00,
2013-05-21 00:30:00,61.1,59.7,29.14,North,360,0.0,0.0,95,0.00,,,0.00,Wunderground v.1.15,2013-05-21 04:30:00,
2013-05-21 00:40:00,60.8,59.4,29.14,North,360,0.0,0.0,95,0.00,,,0.00,Wunderground v.1.15,2013-05-21 04:40:00,
2013-05-21 00:45:00,60.8,59.4,29.14,North,360,0.0,0.0,95,0.00,,,0.00,Wunderground v.1.15,2013-05-21 04:45:00,
2013-05-21 00:55:00,60.4,59.0,29.13,North,360,0.0,0.0,95,0.00,,,0.00,Wunderground v.1.15,2013-05-21 04:55:00,
2013-05-21 01:00:00,60.5,59.4,29.13,North,360,0.0,0.0,96,0.00,,,0.00,Wunderground v.1.15,2013-05-21 05:00:00,
2013-05-21 01:10:00,60.2,58.8,29.12,North,360,0.0,0.0,95,0.00,,,0.00,Wunderground v.1.15,2013-05-21 05:10:00,
2013-05-21 01:15:00,60.3,59.2,29.12,North,360,0.0,0.0,96,0.00,,,0.00,Wunderground v.1.15,2013-05-21 05:15:00,
2013-05-21 01:25:00,60.1,59.0,29.12,North,360,0.0,0.0,96,0.00,,,0.00,Wunderground v.1.15,2013-05-21 05:25:00,
2013-05-21 01:35:00,59.8,58.7,29.13,North,360,0.0,0.0,96,0.00,,,0.00,Wunderground v.1.15,2013-05-21 05:35:00,
2013-05-21 01:40:00,59.8,58.7,29.12,North,360,0.0,0.0,96,0.00,,,0.00,Wunderground v.1.15,2013-05-21 05:40:00,
2013-05-21 01:50:00,59.5,58.4,29.12,North,360,0.0,0.0,96,0.00,,,0.00,Wunderground v.1.15,2013-05-21 05:50:00,
2013-05-21 02:00:00,59.7,58.6,29.11,North,360,0.0,0.0,96,0.00,,,0.00,Wunderground v.1.15,2013-05-21 06:00:00,
2013-05-21 02:05:00,59.5,58.4,29.10,North,360,0.0,0.0,96,0.00,,,0.00,Wunderground v.1.15,2013-05-21 06:05:00,
2013-05-21 02:15:00,59.1,58.0,29.11,North,360,0.0,0.0,96,0.00,,,0.00,Wunderground v.1.15,2013-05-21 06:15:00,
2013-05-21 02:20:00,59.1,58.0,29.11,North,360,0.0,0.0,96,0.00,,,0.00,Wunderground v.1.15,2013-05-21 06:20:00,
2013-05-21 02:25:00,59.1,58.0,29.11,North,360,0.0,0.0,96,0.00,,,0.00,Wunderground v.1.15,2013-05-21 06:25:00,
2013-05-21 02:30:00,59.0,57.9,29.10,North,360,0.0,0.0,96,0.00,,,0.00,Wunderground v.1.15,2013-05-21 06:30:00,
2013-05-21 02:40:00,58.7,57.6,29.10,North,360,0.0,0.0,96,0.00,,,0.00,Wunderground v.1.15,2013-05-21 06:40:00,
2013-05-21 02:50:00,58.9,57.8,29.10,North,360,0.0,0.0,96,0.00,,,0.00,Wunderground v.1.15,2013-05-21 06:50:00,
2013-05-21 03:00:00,59.0,57.9,29.10,North,360,0.0,0.0,96,0.00,,,0.00,Wunderground v.1.15,2013-05-21 07:00:00,
2013-05-21 03:10:00,58.7,57.6,29.10,North,360,0.0,0.0,96,0.00,,,0.00,Wunderground v.1.15,2013-05-21 07:10:00,
2013-05-21 03:15:00,58.4,57.3,29.09,North,360,0.0,0.0,96,0.00,,,0.00,Wunderground v.1.15,2013-05-21 07:15:00,
2013-05-21 03:25:00,58.3,57.2,29.09,North,360,0.0,0.0,96,0.00,,,0.00,Wunderground v.1.15,2013-05-21 07:25:00,
2013-05-21 03:35:00,58.3,57.2,29.09,North,360,0.0,0.0,96,0.00,,,0.00,Wunderground v.1.15,2013-05-21 07:35:00,
2013-05-21 03:40:00,58.3,57.2,29.09,North,360,0.0,0.0,96,0.00,,,0.00,Wunderground v.1.15,2013-05-21 07:40:00,
2013-05-21 03:50:00,58.2,57.1,29.09,North,360,0.0,0.0,96,0.00,,,0.00,Wunderground v.1.15,2013-05-21 07:50:00,
2013-05-21 04:00:00,57.9,56.8,29.10,North,360,0.0,0.0,96,0.00,,,0.00,Wunderground v.1.15,2013-05-21 08:00:00,
2013-05-21 04:10:00,57.9,56.8,29.11,North,360,0.0,0.0,96,0.00,,,0.00,Wunderground v.1.15,2013-05-21 08:10:00,
2013-05-21 04:20:00,57.8,56.7,29.11,North,360,0.0,0.0,96,0.00,,,0.00,Wunderground v.1.15,2013-05-21 08:20:00,
2013-05-21 04:30:00,57.6,56.8,29.11,North,360,0.0,0.0,97,0.00,,,0.00,Wunderground v.1.15,2013-05-21 08:30:00,
2013-05-21 04:35:00,57.7,56.9,29.11,North,360,0.0,0.0,97,0.00,,,0.00,Wunderground v.1.15,2013-05-21 08:35:00,
2013-05-21 04:45:00,57.5,56.4,29.11,North,360,0.0,0.0,96,0.00,,,0.00,Wunderground v.1.15,2013-05-21 08:45:00,
2013-05-21 04:55:00,57.3,56.5,29.11,North,360,0.0,0.0,97,0.00,,,0.00,Wunderground v.1.15,2013-05-21 08:55:00,
2013-05-21 05:05:00,57.3,56.5,29.10,North,360,0.0,0.0,97,0.00,,,0.00,Wunderground v.1.15,2013-05-21 09:05:00,
2013-05-21 05:15:00,57.1,56.0,29.09,North,360,0.0,0.0,96,0.00,,,0.00,Wunderground v.1.15,2013-05-21 09:15:00,
2013-05-21 05:25:00,57.2,56.4,29.10,North,360,0.0,0.0,97,0.00,,,0.00,Wunderground v.1.15,2013-05-21 09:25:00,
2013-05-21 05:30:00,57.2,56.4,29.10,North,360,0.0,0.0,97,0.00,,,0.00,Wunderground v.1.15,2013-05-21 09:30:00,
2013-05-21 05:40:00,56.9,56.1,29.10,North,360,0.0,0.0,97,0.00,,,0.00,Wunderground v.1.15,2013-05-21 09:40:00,
2013-05-21 05:50:00,57.1,56.3,29.10,North,360,0.0,0.0,97,0.00,,,0.00,Wunderground v.1.15,2013-05-21 09:50:00,
2013-05-21 06:00:00,57.1,56.3,29.08,North,360,0.0,0.0,97,0.00,,,0.00,Wunderground v.1.15,2013-05-21 10:00:00,
2013-05-21 06:10:00,58.4,57.6,29.10,North,360,0.0,0.0,97,0.00,,,0.00,Wunderground v.1.15,2013-05-21 10:10:00,
2013-05-21 06:20:00,58.8,58.2,29.09,North,360,0.0,0.0,98,0.00,,,0.00,Wunderground v.1.15,2013-05-21 10:20:00,
2013-05-21 06:30:00,58.9,58.1,29.09,North,360,0.0,0.0,97,0.00,,,0.00,Wunderground v.1.15,2013-05-21 10:30:00,
2013-05-21 06:40:00,59.1,58.5,29.09,North,360,0.0,0.0,98,0.00,,,0.00,Wunderground v.1.15,2013-05-21 10:40:00,
2013-05-21 06:45:00,59.8,59.2,29.09,North,360,0.0,0.0,98,0.00,,,0.00,Wunderground v.1.15,2013-05-21 10:45:00,
2013-05-21 06:55:00,60.6,60.0,29.08,North,360,0.0,0.0,98,0.00,,,0.00,Wunderground v.1.15,2013-05-21 10:55:00,
2013-05-21 07:05:00,60.8,60.2,29.08,North,360,0.0,0.0,98,0.00,,,0.00,Wunderground v.1.15,2013-05-21 11:05:00,
2013-05-21 07:10:00,61.1,60.5,29.09,North,360,0.0,0.0,98,0.00,,,0.00,Wunderground v.1.15,2013-05-21 11:10:00,
2013-05-21 07:20:00,61.4,60.8,29.09,North,9,0.0,0.0,98,0.00,,,0.00,Wunderground v.1.15,2013-05-21 11:20:00,
2013-05-21 07:30:00,61.5,60.9,29.09,North,9,0.0,0.0,98,0.00,,,0.00,Wunderground v.1.15,2013-05-21 11:30:00,
2013-05-21 07:40:00,61.6,61.0,29.09,North,9,0.0,0.0,98,0.00,,,0.00,Wunderground v.1.15,2013-05-21 11:40:00,
2013-05-21 07:50:00,62.5,61.9,29.09,North,9,0.0,0.0,98,0.00,,,0.00,Wunderground v.1.15,2013-05-21 11:50:00,
2013-05-21 07:55:00,62.6,62.0,29.09,North,9,0.0,0.0,98,0.00,,,0.00,Wunderground v.1.15,2013-05-21 11:55:00,
2013-05-21 08:05:00,62.9,62.3,29.10,North,9,0.0,0.0,98,0.00,,,0.00,Wunderground v.1.15,2013-05-21 12:05:00,
2013-05-21 08:10:00,63.1,62.5,29.10,North,9,0.0,0.0,98,0.00,,,0.00,Wunderground v.1.15,2013-05-21 12:10:00,
2013-05-21 08:20:00,63.3,62.7,29.10,North,9,0.0,0.0,98,0.00,,,0.00,Wunderground v.1.15,2013-05-21 12:20:00,
2013-05-21 08:30:00,63.4,62.8,29.10,North,9,0.0,0.0,98,0.00,,,0.00,Wunderground v.1.15,2013-05-21 12:30:00,
2013-05-21 08:35:00,63.5,62.9,29.09,North,5,0.0,0.0,98,0.00,,,0.00,Wunderground v.1.15,2013-05-21 12:35:00,
2013-05-21 08:40:00,63.7,63.1,29.09,North,360,0.0,0.0,98,0.00,,,0.00,Wunderground v.1.15,2013-05-21 12:40:00,
2013-05-21 08:50:00,64.1,63.5,29.09,North,360,0.0,0.0,98,0.00,,,0.00,Wunderground v.1.15,2013-05-21 12:50:00,
2013-05-21 08:55:00,64.3,63.7,29.10,North,360,0.0,0.0,98,0.00,,,0.00,Wunderground v.1.15,2013-05-21 12:55:00,
2013-05-21 09:05:00,64.4,63.5,29.09,North,360,0.0,0.0,97,0.00,,,0.00,Wunderground v.1.15,2013-05-21 13:05:00,
2013-05-21 09:10:00,64.7,64.1,29.08,North,360,0.0,0.0,98,0.00,,,0.00,Wunderground v.1.15,2013-05-21 13:10:00,
2013-05-21 09:15:00,65.1,64.2,29.09,North,360,0.0,0.0,97,0.00,,,0.00,Wunderground v.1.15,2013-05-21 13:15:00,
2013-05-21 09:25:00,65.1,63.9,29.09,North,360,0.0,0.0,96,0.00,,,0.00,Wunderground v.1.15,2013-05-21 13:25:00,
2013-05-21 09:30:00,65.5,64.3,29.08,North,360,0.0,0.0,96,0.00,,,0.00,Wunderground v.1.15,2013-05-21 13:30:00,
2013-05-21 09:40:00,66.2,64.4,29.09,North,360,0.0,0.0,94,0.00,,,0.00,Wunderground v.1.15,2013-05-21 13:40:00,
2013-05-21 09:45:00,67.0,65.5,29.09,North,360,0.0,0.0,95,0.00,,,0.00,Wunderground v.1.15,2013-05-21 13:45:00,
2013-05-21 09:50:00,67.9,65.8,29.09,North,360,0.0,0.0,93,0.00,,,0.00,Wunderground v.1.15,2013-05-21 13:50:00,
2013-05-21 10:00:00,67.8,64.8,29.08,North,360,0.0,0.0,90,0.00,,,0.00,Wunderground v.1.15,2013-05-21 14:00:00,
2013-05-21 10:05:00,68.2,65.5,29.08,North,360,0.0,0.0,91,0.00,,,0.00,Wunderground v.1.15,2013-05-21 14:05:00,
2013-05-21 10:10:00,69.0,66.3,29.08,North,360,0.0,0.0,91,0.00,,,0.00,Wunderground v.1.15,2013-05-21 14:10:00,
2013-05-21 10:20:00,70.7,66.6,29.07,North,360,0.0,0.0,87,0.00,,,0.00,Wunderground v.1.15,2013-05-21 14:20:00,
2013-05-21 10:25:00,71.0,67.3,29.06,North,360,0.0,0.0,88,0.00,,,0.00,Wunderground v.1.15,2013-05-21 14:25:00,
2013-05-21 10:35:00,71.9,67.1,29.05,North,360,0.0,0.0,85,0.00,,,0.00,Wunderground v.1.15,2013-05-21 14:35:00,
2013-05-21 10:40:00,72.3,66.8,29.06,North,360,0.0,0.0,83,0.00,,,0.00,Wunderground v.1.15,2013-05-21 14:40:00,
2013-05-21 10:50:00,73.5,67.3,29.05,North,360,0.0,0.0,81,0.00,,,0.00,Wunderground v.1.15,2013-05-21 14:50:00,
2013-05-21 11:00:00,74.4,67.8,29.05,North,360,0.0,0.0,80,0.00,,,0.00,Wunderground v.1.15,2013-05-21 15:00:00,
2013-05-21 11:05:00,74.8,68.2,29.04,North,360,0.0,0.0,80,0.00,,,0.00,Wunderground v.1.15,2013-05-21 15:05:00,
2013-05-21 11:15:00,76.0,69.7,29.03,North,360,0.0,0.0,81,0.00,,,0.00,Wunderground v.1.15,2013-05-21 15:15:00,
2013-05-21 11:25:00,77.3,69.5,29.02,North,360,0.0,0.0,77,0.00,,,0.00,Wunderground v.1.15,2013-05-21 15:25:00,
2013-05-21 11:30:00,78.0,68.6,29.02,North,360,0.0,0.0,73,0.00,,,0.00,Wunderground v.1.15,2013-05-21 15:30:00,
2013-05-21 11:40:00,78.4,69.4,29.01,North,360,0.0,0.0,74,0.00,,,0.00,Wunderground v.1.15,2013-05-21 15:40:00,
2013-05-21 11:50:00,78.9,68.7,29.01,North,360,0.0,0.0,71,0.00,,,0.00,Wunderground v.1.15,2013-05-21 15:50:00,
2013-05-21 11:55:00,79.7,69.9,29.01,North,360,0.0,0.0,72,0.00,,,0.00,Wunderground v.1.15,2013-05-21 15:55:00,
2013-05-21 12:00:00,79.9,70.1,29.01,North,360,0.0,0.0,72,0.00,,,0.00,Wunderground v.1.15,2013-05-21 16:00:00,
2013-05-21 12:10:00,80.6,69.5,29.01,North,360,0.0,0.0,69,0.00,,,0.00,Wunderground v.1.15,2013-05-21 16:10:00,
2013-05-21 12:20:00,80.6,69.9,29.01,North,360,0.0,0.0,70,0.00,,,0.00,Wunderground v.1.15,2013-05-21 16:20:00,
2013-05-21 12:30:00,80.3,69.2,29.01,North,360,0.0,0.0,69,0.00,,,0.00,Wunderground v.1.15,2013-05-21 16:30:00,
2013-05-21 12:40:00,79.6,69.0,29.01,North,360,0.0,0.0,70,0.00,,,0.00,Wunderground v.1.15,2013-05-21 16:40:00,
2013-05-21 12:50:00,79.3,70.3,29.00,North,360,0.0,0.0,74,0.00,,,0.00,Wunderground v.1.15,2013-05-21 16:50:00,
2013-05-21 12:55:00,79.4,70.8,29.01,North,360,0.0,0.0,75,0.00,,,0.00,Wunderground v.1.15,2013-05-21 16:55:00,
2013-05-21 13:00:00,79.2,71.4,29.01,North,360,0.0,0.0,77,0.00,,,0.00,Wunderground v.1.15,2013-05-21 17:00:00,
2013-05-21 13:05:00,78.7,70.9,29.01,North,360,0.0,0.0,77,0.00,,,0.00,Wunderground v.1.15,2013-05-21 17:05:00,
2013-05-21 13:15:00,78.0,69.4,29.01,North,360,0.0,0.0,75,0.00,,,0.00,Wunderground v.1.15,2013-05-21 17:15:00,
2013-05-21 13:25:00,78.3,70.1,29.01,North,360,0.0,0.0,76,0.00,,,0.00,Wunderground v.1.15,2013-05-21 17:25:00,
2013-05-21 13:30:00,78.4,71.0,29.01,North,360,0.0,0.0,78,0.00,,,0.00,Wunderground v.1.15,2013-05-21 17:30:00,
2013-05-21 13:40:00,78.2,71.2,29.01,North,360,0.0,0.0,79,0.00,,,0.00,Wunderground v.1.15,2013-05-21 17:40:00,
2013-05-21 13:45:00,77.9,72.0,29.01,North,360,0.0,0.0,82,0.00,,,0.00,Wunderground v.1.15,2013-05-21 17:45:00,
2013-05-21 13:55:00,78.7,71.6,29.01,North,360,0.0,0.0,79,0.00,,,0.00,Wunderground v.1.15,2013-05-21 17:55:00,
2013-05-21 14:05:00,80.3,69.6,29.00,North,360,0.0,0.0,70,0.00,,,0.00,Wunderground v.1.15,2013-05-21 18:05:00,
2013-05-21 14:10:00,81.3,69.3,29.00,North,360,0.0,0.0,67,0.00,,,0.00,Wunderground v.1.15,2013-05-21 18:10:00,
2013-05-21 14:20:00,82.4,69.0,28.99,North,360,0.0,0.0,64,0.00,,,0.00,Wunderground v.1.15,2013-05-21 18:20:00,
2013-05-21 14:25:00,82.9,66.6,28.99,North,360,0.0,0.0,58,0.00,,,0.00,Wunderground v.1.15,2013-05-21 18:25:00,
2013-05-21 14:35:00,83.5,68.2,28.99,North,360,0.0,0.0,60,0.00,,,0.00,Wunderground v.1.15,2013-05-21 18:35:00,
2013-05-21 14:40:00,83.9,68.0,28.99,North,360,0.0,0.0,59,0.00,,,0.00,Wunderground v.1.15,2013-05-21 18:40:00,
2013-05-21 14:50:00,83.3,66.5,28.99,North,360,0.0,0.0,57,0.00,,,0.00,Wunderground v.1.15,2013-05-21 18:50:00,
2013-05-21 14:55:00,83.4,68.5,28.99,North,360,0.0,0.0,61,0.00,,,0.00,Wunderground v.1.15,2013-05-21 18:55:00,
2013-05-21 15:05:00,83.1,69.7,28.99,North,360,0.0,0.0,64,0.00,,,0.00,Wunderground v.1.15,2013-05-21 19:05:00,
2013-05-21 15:10:00,82.8,67.5,28.99,North,360,0.0,0.0,60,0.00,,,0.00,Wunderground v.1.15,2013-05-21 19:10:00,
2013-05-21 15:20:00,82.0,70.4,28.99,North,360,0.0,0.0,68,0.00,,,0.00,Wunderground v.1.15,2013-05-21 19:20:00,
2013-05-21 15:30:00,80.8,70.1,28.98,North,360,0.0,0.0,70,0.00,,,0.00,Wunderground v.1.15,2013-05-21 19:30:00,
2013-05-21 15:40:00,79.3,69.1,28.98,North,360,0.0,0.0,71,0.00,,,0.00,Wunderground v.1.15,2013-05-21 19:40:00,
2013-05-21 15:50:00,78.0,69.0,28.98,North,360,0.0,0.0,74,0.00,,,0.00,Wunderground v.1.15,2013-05-21 19:50:00,
2013-05-21 15:55:00,77.5,69.3,28.97,North,360,0.0,0.0,76,0.00,,,0.00,Wunderground v.1.15,2013-05-21 19:55:00,
2013-05-21 16:05:00,77.4,70.0,28.98,North,360,0.0,0.0,78,0.00,,,0.00,Wunderground v.1.15,2013-05-21 20:05:00,
2013-05-21 16:15:00,77.1,70.1,28.97,North,360,0.0,0.0,79,0.00,,,0.00,Wunderground v.1.15,2013-05-21 20:15:00,
2013-05-21 16:20:00,77.1,70.5,28.97,North,360,0.0,0.0,80,0.00,,,0.00,Wunderground v.1.15,2013-05-21 20:20:00,
2013-05-21 16:25:00,77.2,70.2,28.97,North,360,0.0,0.0,79,0.00,,,0.00,Wunderground v.1.15,2013-05-21 20:25:00,
2013-05-21 16:35:00,76.9,69.9,28.97,North,360,0.0,0.0,79,0.00,,,0.00,Wunderground v.1.15,2013-05-21 20:35:00,
2013-05-21 16:45:00,76.3,70.0,28.97,North,360,0.0,0.0,81,0.00,,,0.00,Wunderground v.1.15,2013-05-21 20:45:00,
2013-05-21 16:55:00,76.0,69.4,28.97,North,360,0.0,0.0,80,0.00,,,0.00,Wunderground v.1.15,2013-05-21 20:55:00,
2013-05-21 17:00:00,76.1,70.2,28.97,North,360,0.0,0.0,82,0.00,,,0.00,Wunderground v.1.15,2013-05-21 21:00:00,
2013-05-21 17:10:00,75.6,68.6,28.96,North,360,0.0,0.0,79,0.00,,,0.00,Wunderground v.1.15,2013-05-21 21:10:00,
2013-05-21 17:15:00,75.0,68.4,28.95,North,360,0.0,0.0,80,0.00,,,0.00,Wunderground v.1.15,2013-05-21 21:15:00,
2013-05-21 17:25:00,74.2,68.3,28.96,North,360,0.0,0.0,82,0.00,,,0.00,Wunderground v.1.15,2013-05-21 21:25:00,
2013-05-21 17:35:00,74.0,68.2,28.96,North,360,0.0,0.0,82,0.00,,,0.00,Wunderground v.1.15,2013-05-21 21:35:00,
2013-05-21 17:45:00,74.0,68.5,28.96,North,360,0.0,0.0,83,0.00,,,0.00,Wunderground v.1.15,2013-05-21 21:45:00,
2013-05-21 17:50:00,73.9,68.4,28.97,North,360,0.0,0.0,83,0.00,,,0.00,Wunderground v.1.15,2013-05-21 21:50:00,
2013-05-21 18:00:00,74.7,68.5,28.97,North,360,0.0,0.0,81,0.00,,,0.00,Wunderground v.1.15,2013-05-21 22:00:00,
2013-05-21 18:10:00,76.4,68.7,28.98,North,360,0.0,0.0,77,0.00,,,0.00,Wunderground v.1.15,2013-05-21 22:10:00,
2013-05-21 18:20:00,77.1,68.2,28.99,North,360,0.0,0.0,74,0.00,,,0.00,Wunderground v.1.15,2013-05-21 22:20:00,
2013-05-21 18:30:00,77.1,67.8,28.99,North,360,0.0,0.0,73,0.00,,,0.00,Wunderground v.1.15,2013-05-21 22:30:00,
2013-05-21 18:35:00,76.8,67.5,29.00,North,360,0.0,0.0,73,0.00,,,0.00,Wunderground v.1.15,2013-05-21 22:35:00,
2013-05-21 18:45:00,76.3,67.4,29.00,North,360,0.0,0.0,74,0.00,,,0.00,Wunderground v.1.15,2013-05-21 22:45:00,
2013-05-21 18:50:00,75.9,67.0,29.01,North,360,0.0,0.0,74,0.00,,,0.00,Wunderground v.1.15,2013-05-21 22:50:00,
2013-05-21 19:00:00,74.2,65.4,29.02,North,360,0.0,0.0,74,0.00,,,0.00,Wunderground v.1.15,2013-05-21 23:00:00,
2013-05-21 19:05:00,73.2,64.4,29.02,North,360,0.0,0.0,74,0.00,,,0.00,Wunderground v.1.15,2013-05-21 23:05:00,
2013-05-21 19:15:00,71.3,62.6,29.04,North,360,0.0,0.0,74,0.00,,,0.00,Wunderground v.1.15,2013-05-21 23:15:00,
2013-05-21 19:20:00,70.2,62.3,29.05,North,360,0.0,0.0,76,0.00,,,0.00,Wunderground v.1.15,2013-05-21 23:20:00,
2013-05-21 19:30:00,68.4,60.5,29.05,North,360,0.0,0.0,76,0.00,,,0.00,Wunderground v.1.15,2013-05-21 23:30:00,
2013-05-21 19:35:00,67.2,59.4,29.05,North,360,0.0,0.0,76,0.00,,,0.00,Wunderground v.1.15,2013-05-21 23:35:00,
2013-05-21 19:45:00,65.4,58.4,29.05,North,360,0.0,0.0,78,0.00,,,0.00,Wunderground v.1.15,2013-05-21 23:45:00,
2013-05-21 19:55:00,63.9,57.6,29.06,North,360,0.0,0.0,80,0.00,,,0.00,Wunderground v.1.15,2013-05-21 23:55:00,
2013-05-21 20:00:00,63.6,57.3,29.07,North,360,0.0,0.0,80,0.00,,,0.00,Wunderground v.1.15,2013-05-22 00:00:00,
2013-05-21 20:10:00,62.2,56.3,29.08,North,360,0.0,0.0,81,0.00,,,0.00,Wunderground v.1.15,2013-05-22 00:10:00,
2013-05-21 20:15:00,61.7,56.1,29.08,North,360,0.0,0.0,82,0.00,,,0.00,Wunderground v.1.15,2013-05-22 00:15:00,
2013-05-21 20:25:00,60.8,55.3,29.07,North,360,0.0,0.0,82,0.00,,,0.00,Wunderground v.1.15,2013-05-22 00:25:00,
2013-05-21 20:30:00,60.5,55.3,29.08,North,360,0.0,0.0,83,0.00,,,0.00,Wunderground v.1.15,2013-05-22 00:30:00,
2013-05-21 20:40:00,59.7,54.5,29.07,North,360,0.0,0.0,83,0.00,,,0.00,Wunderground v.1.15,2013-05-22 00:40:00,
2013-05-21 20:50:00,59.0,54.2,29.07,North,360,0.0,0.0,84,0.00,,,0.00,Wunderground v.1.15,2013-05-22 00:50:00,
2013-05-21 21:00:00,58.6,53.8,29.08,North,360,0.0,0.0,84,0.00,,,0.00,Wunderground v.1.15,2013-05-22 01:00:00,
2013-05-21 21:05:00,58.3,53.5,29.09,North,360,0.0,0.0,84,0.00,,,0.00,Wunderground v.1.15,2013-05-22 01:05:00,
2013-05-21 21:15:00,57.7,53.2,29.09,North,360,0.0,0.0,85,0.00,,,0.00,Wunderground v.1.15,2013-05-22 01:15:00,
2013-05-21 21:25:00,57.1,53.0,29.09,NNE,28,0.0,0.0,86,0.00,,,0.01,Wunderground v.1.15,2013-05-22 01:25:00,
2013-05-21 21:30:00,56.7,52.9,29.10,NNE,27,0.0,0.0,87,0.00,,,0.01,Wunderground v.1.15,2013-05-22 01:30:00,
2013-05-21 21:40:00,56.1,52.6,29.09,NNE,23,0.0,0.0,88,0.00,,,0.01,Wunderground v.1.15,2013-05-22 01:40:00,
2013-05-21 21:50:00,55.7,52.5,29.09,NNE,18,0.0,0.0,89,0.00,,,0.01,Wunderground v.1.15,2013-05-22 01:50:00,
2013-05-21 22:00:00,55.4,52.5,29.10,NNE,17,0.0,0.0,90,0.00,,,0.01,Wunderground v.1.15,2013-05-22 02:00:00,
2013-05-21 22:10:00,55.1,52.5,29.09,NNE,17,0.0,0.0,91,0.00,,,0.01,Wunderground v.1.15,2013-05-22 02:10:00,
2013-05-21 22:15:00,54.9,52.0,29.09,NNE,17,0.0,0.0,90,0.00,,,0.01,Wunderground v.1.15,2013-05-22 02:15:00,
2013-05-21 22:25:00,54.5,51.9,29.09,NNE,15,0.0,0.0,91,0.00,,,0.01,Wunderground v.1.15,2013-05-22 02:25:00,
2013-05-21 22:30:00,54.3,51.7,29.10,North,360,0.0,0.0,91,0.00,,,0.02,Wunderground v.1.15,2013-05-22 02:30:00,
2013-05-21 22:40:00,54.0,51.4,29.11,North,360,0.0,0.0,91,0.00,,,0.02,Wunderground v.1.15,2013-05-22 02:40:00,
2013-05-21 22:50:00,53.8,51.5,29.12,North,360,0.0,0.0,92,0.05,,,0.03,Wunderground v.1.15,2013-05-22 02:50:00,
2013-05-21 23:00:00,53.9,51.9,29.18,NE,46,0.0,0.0,93,0.00,,,0.03,Wunderground v.1.15,2013-05-22 03:00:00,
2013-05-21 23:10:00,53.7,51.7,29.16,NNE,30,0.0,0.0,93,0.11,,,0.05,Wunderground v.1.15,2013-05-22 03:10:00,
2013-05-21 23:20:00,53.2,51.2,29.15,NNE,19,0.0,0.0,93,0.15,,,0.07,Wunderground v.1.15,2013-05-22 03:20:00,
2013-05-21 23:30:00,52.9,51.2,29.13,NNE,26,0.0,0.0,94,0.14,,,0.10,Wunderground v.1.15,2013-05-22 03:30:00,
2013-05-21 23:35:00,52.8,51.1,29.13,NE,44,0.0,0.0,94,0.15,,,0.11,Wunderground v.1.15,2013-05-22 03:35:00,
2013-05-21 23:45:00,52.6,50.9,29.13,NE,48,0.0,0.0,94,0.14,,,0.13,Wunderground v.1.15,2013-05-22 03:45:00,
2013-05-21 23:55:00,52.5,50.8,29.11,ENE,57,0.0,0.0,94,0.13,,,0.15,Wunderground v.1.15,2013-05-22 03:55:00,